Time;durP1;ratioP1;P1;durP2;ratioP2;P2;SDS_P1;SDS_P2;PMS_P1;PMS_P2;Temp;Humidity;BMP_temperature;BMP_pressure;BME280_temperature;BME280_humidity;BME280_pressure;Samples;Min_cycle;Max_cycle;Signal;HPM_P1;HPM_P2
2023/07/17 00:01:06;;;;;;;10.00;8.10;;;18.90;99.90;;;;;;4391283;28;660035;-69
2023/07/17 00:03:53;;;;;;;12.40;8.33;;;18.90;99.90;;;;;;4406477;28;660312;-69
2023/07/17 00:06:40;;;;;;;9.10;7.90;;;18.90;99.90;;;;;;4389004;28;659694;-69
2023/07/17 00:09:29;;;;;;;10.20;7.90;;;18.90;99.90;;;;;;4413135;28;660029;-69
2023/07/17 00:12:16;;;;;;;10.47;6.90;;;18.80;99.90;;;;;;4387398;28;659679;-69
2023/07/17 00:15:05;;;;;;;9.87;7.60;;;18.90;99.90;;;;;;4408958;28;660105;-69
2023/07/17 00:17:52;;;;;;;12.67;8.07;;;18.80;99.90;;;;;;4385690;28;660281;-69
2023/07/17 00:20:39;;;;;;;7.83;7.03;;;18.70;99.90;;;;;;4408355;28;660296;-69
2023/07/17 00:23:27;;;;;;;8.90;7.30;;;18.70;99.90;;;;;;4389707;28;659730;-69
2023/07/17 00:26:15;;;;;;;7.90;6.77;;;18.70;99.90;;;;;;4409123;28;658375;-70
2023/07/17 00:29:21;;;;;;;7.50;6.47;;;18.70;99.90;;;;;;4388799;28;659726;-69
2023/07/17 00:32:08;;;;;;;11.07;5.23;;;18.70;99.90;;;;;;4387621;28;659347;-69
2023/07/17 00:34:55;;;;;;;6.17;5.30;;;18.70;99.90;;;;;;4389802;28;659608;-69
2023/07/17 00:37:42;;;;;;;8.53;6.43;;;18.70;99.90;;;;;;4405962;28;659277;-69
2023/07/17 00:40:30;;;;;;;7.37;5.90;;;18.60;99.90;;;;;;4400752;28;658777;-69
2023/07/17 00:43:19;;;;;;;10.70;7.00;;;18.60;99.90;;;;;;4412143;28;658552;-69
2023/07/17 00:46:06;;;;;;;8.67;6.83;;;18.50;99.90;;;;;;4389470;28;659463;-69
2023/07/17 00:48:53;;;;;;;9.07;5.63;;;18.50;99.90;;;;;;4410807;28;659331;-69
2023/07/17 00:51:41;;;;;;;7.47;6.17;;;18.60;99.90;;;;;;4390740;28;658309;-69
2023/07/17 00:54:28;;;;;;;10.40;6.97;;;18.60;99.90;;;;;;4401859;28;659293;-69
2023/07/17 00:57:17;;;;;;;11.00;6.77;;;18.50;99.90;;;;;;4387986;28;659447;-69
2023/07/17 01:00:08;;;;;;;12.27;6.67;;;18.50;99.90;;;;;;4405405;28;660360;-69
2023/07/17 01:02:55;;;;;;;13.20;6.27;;;18.50;99.90;;;;;;4365717;28;659463;-69
2023/07/17 01:05:43;;;;;;;8.20;6.00;;;18.60;99.90;;;;;;4408490;28;660522;-69
2023/07/17 01:08:30;;;;;;;8.57;5.77;;;18.60;99.90;;;;;;4394250;28;658753;-69
2023/07/17 01:11:17;;;;;;;11.03;5.73;;;18.60;99.90;;;;;;4404192;28;659523;-69
2023/07/17 01:14:05;;;;;;;6.80;5.63;;;18.50;99.90;;;;;;4405791;28;659539;-69
2023/07/17 01:16:54;;;;;;;6.60;5.27;;;18.50;99.90;;;;;;4412286;28;659230;-69
2023/07/17 01:19:41;;;;;;;6.53;5.57;;;18.50;99.90;;;;;;4389871;28;659213;-69
2023/07/17 01:22:29;;;;;;;6.67;4.93;;;18.60;99.90;;;;;;4405100;28;659792;-69
2023/07/17 01:25:18;;;;;;;9.70;4.80;;;18.60;99.90;;;;;;4388058;28;658896;-69
2023/07/17 01:28:06;;;;;;;7.33;4.80;;;18.60;99.90;;;;;;4390824;28;658613;-69
2023/07/17 01:30:53;;;;;;;8.37;5.03;;;18.60;99.90;;;;;;4406220;28;659695;-69
2023/07/17 01:33:40;;;;;;;5.07;4.47;;;18.70;99.90;;;;;;4391449;28;658373;-69
2023/07/17 01:36:28;;;;;;;6.33;4.20;;;18.70;99.90;;;;;;4409179;28;658837;-69
2023/07/17 01:39:15;;;;;;;6.07;4.27;;;18.70;99.90;;;;;;4395643;28;660215;-69
2023/07/17 01:42:04;;;;;;;5.77;4.63;;;18.70;99.90;;;;;;4410080;28;659433;-69
2023/07/17 01:44:51;;;;;;;8.13;4.53;;;18.70;99.90;;;;;;4388918;28;658758;-69
2023/07/17 01:47:38;;;;;;;6.03;4.23;;;18.80;99.90;;;;;;4407776;28;658432;-69
2023/07/17 01:50:26;;;;;;;5.30;4.20;;;18.80;99.90;;;;;;4386918;28;659650;-69
2023/07/17 01:53:13;;;;;;;7.00;4.20;;;18.80;99.90;;;;;;4410733;28;659440;-69
2023/07/17 01:56:00;;;;;;;4.70;3.97;;;18.80;99.90;;;;;;4392815;28;658912;-69
2023/07/17 01:58:49;;;;;;;4.50;4.10;;;18.80;99.90;;;;;;4407784;28;659591;-69
2023/07/17 02:01:36;;;;;;;13.57;4.63;;;18.80;99.90;;;;;;4388334;28;658809;-69
2023/07/17 02:04:23;;;;;;;8.67;4.50;;;18.80;99.90;;;;;;4402581;28;659998;-69
2023/07/17 02:07:11;;;;;;;11.97;4.47;;;18.80;99.90;;;;;;4382371;28;658558;-69
2023/07/17 02:09:58;;;;;;;8.60;4.40;;;18.90;99.90;;;;;;4408499;28;660198;-69
2023/07/17 02:12:45;;;;;;;9.00;4.47;;;18.90;99.90;;;;;;4393478;28;658435;-69
2023/07/17 02:15:34;;;;;;;9.27;4.77;;;18.90;99.90;;;;;;4407602;28;659442;-69
2023/07/17 02:18:21;;;;;;;6.73;4.60;;;18.80;99.90;;;;;;4387127;28;658427;-69
2023/07/17 02:21:08;;;;;;;6.37;4.40;;;18.80;99.90;;;;;;4408575;28;659616;-69
2023/07/17 02:23:57;;;;;;;7.00;4.90;;;18.80;99.90;;;;;;4385952;28;658709;-69
2023/07/17 02:26:44;;;;;;;7.30;4.00;;;18.80;99.90;;;;;;4398201;28;658223;-69
2023/07/17 02:29:31;;;;;;;5.60;4.47;;;18.80;99.90;;;;;;4387600;28;658454;-69
2023/07/17 02:32:20;;;;;;;5.37;4.80;;;18.80;99.90;;;;;;4406581;28;658902;-69
2023/07/17 02:35:08;;;;;;;6.63;5.00;;;18.80;99.90;;;;;;4384769;28;660214;-70
2023/07/17 02:37:55;;;;;;;5.40;4.57;;;18.80;99.90;;;;;;4387210;28;658656;-69
2023/07/17 02:40:43;;;;;;;6.43;4.67;;;18.90;99.90;;;;;;4404291;28;659497;-69
2023/07/17 02:43:30;;;;;;;8.07;4.40;;;19.00;99.90;;;;;;4395667;28;658790;-69
2023/07/17 02:46:17;;;;;;;8.77;4.67;;;19.00;99.90;;;;;;4404980;28;659535;-69
2023/07/17 02:49:09;;;;;;;7.47;4.40;;;19.00;99.90;;;;;;4407654;28;659468;-69
2023/07/17 02:51:56;;;;;;;10.13;4.53;;;19.00;99.90;;;;;;4385751;28;658522;-69
2023/07/17 02:54:43;;;;;;;8.10;4.53;;;18.90;99.90;;;;;;4406257;28;660595;-69
2023/07/17 02:57:30;;;;;;;9.80;4.70;;;18.90;99.90;;;;;;4388369;28;658977;-69
2023/07/17 03:00:19;;;;;;;7.13;4.47;;;19.00;99.90;;;;;;4406375;28;659883;-70
2023/07/17 03:03:08;;;;;;;5.23;4.27;;;19.00;99.90;;;;;;4387351;28;659339;-69
2023/07/17 03:05:58;;;;;;;6.20;4.40;;;19.00;99.90;;;;;;4395552;28;658503;-69
2023/07/17 03:08:45;;;;;;;10.67;4.97;;;18.90;99.90;;;;;;4389685;28;658600;-69
2023/07/17 03:11:32;;;;;;;6.33;4.90;;;18.90;99.90;;;;;;4408296;28;660444;-69
2023/07/17 03:14:20;;;;;;;6.93;4.90;;;19.00;99.90;;;;;;4402562;28;658871;-69
2023/07/17 03:17:07;;;;;;;6.87;4.50;;;19.00;99.90;;;;;;4380380;28;659430;-69
2023/07/17 03:19:54;;;;;;;7.87;5.03;;;19.00;99.90;;;;;;4407184;28;659083;-69
2023/07/17 03:22:43;;;;;;;6.43;4.90;;;19.10;99.90;;;;;;4389384;28;658846;-69
2023/07/17 03:25:30;;;;;;;8.63;4.90;;;19.10;99.90;;;;;;4400864;28;659019;-69
2023/07/17 03:28:17;;;;;;;11.60;4.67;;;19.20;99.90;;;;;;4411339;28;659359;-69
2023/07/17 03:31:04;;;;;;;7.17;4.57;;;19.30;99.90;;;;;;4409079;28;659086;-70
2023/07/17 03:33:52;;;;;;;7.30;5.00;;;19.30;99.90;;;;;;4384388;28;658729;-69
2023/07/17 03:36:39;;;;;;;5.72;5.07;;;19.50;99.90;;;;;;4408729;28;658949;-69
2023/07/17 03:39:28;;;;;;;6.57;4.40;;;19.50;99.90;;;;;;4390221;28;658786;-70
2023/07/17 03:42:15;;;;;;;8.33;4.43;;;19.50;99.90;;;;;;4399815;28;658576;-69
2023/07/17 03:45:04;;;;;;;7.93;3.93;;;19.60;99.90;;;;;;4410117;28;659976;-69
2023/07/17 03:47:51;;;;;;;6.97;4.07;;;19.80;99.90;;;;;;4387113;28;659245;-69
2023/07/17 03:50:39;;;;;;;4.87;4.17;;;19.80;99.90;;;;;;4408855;28;658948;-69
2023/07/17 03:53:26;;;;;;;6.63;4.03;;;19.90;99.90;;;;;;4391137;28;658360;-69
2023/07/17 03:56:14;;;;;;;8.10;4.20;;;20.00;99.90;;;;;;4411728;28;659075;-69
2023/07/17 03:59:02;;;;;;;5.33;4.17;;;20.10;99.90;;;;;;4385568;28;659110;-69
2023/07/17 04:01:49;;;;;;;6.27;3.93;;;20.20;99.90;;;;;;4404663;28;658927;-70
2023/07/17 04:04:36;;;;;;;7.77;4.90;;;20.30;99.90;;;;;;4388546;28;658928;-69
2023/07/17 04:07:24;;;;;;;10.83;4.07;;;20.30;99.90;;;;;;4410308;28;658661;-70
2023/07/17 04:10:11;;;;;;;5.53;4.40;;;20.30;99.90;;;;;;4389522;28;659912;-69
2023/07/17 04:12:59;;;;;;;9.60;4.33;;;20.40;99.90;;;;;;4410479;28;659750;-70
2023/07/17 04:15:48;;;;;;;7.10;4.03;;;20.50;99.90;;;;;;4383128;28;659246;-70
2023/07/17 04:18:35;;;;;;;4.78;3.58;;;20.60;99.90;;;;;;4386694;28;659071;-69
2023/07/17 04:21:23;;;;;;;8.90;4.00;;;20.70;99.90;;;;;;4412236;28;659812;-70
2023/07/17 04:24:10;;;;;;;8.23;3.97;;;20.70;99.90;;;;;;4404058;28;658822;-69
2023/07/17 04:26:57;;;;;;;6.80;4.40;;;20.90;99.90;;;;;;4412446;28;659490;-69
2023/07/17 04:29:46;;;;;;;9.53;3.80;;;21.00;99.90;;;;;;4406844;28;659061;-69
2023/07/17 04:32:33;;;;;;;6.03;4.17;;;21.10;99.90;;;;;;4381023;28;659296;-69
2023/07/17 04:35:20;;;;;;;6.37;3.87;;;20.90;99.90;;;;;;4388633;28;658567;-69
2023/07/17 04:38:07;;;;;;;7.03;3.87;;;20.90;99.90;;;;;;4407522;28;659766;-69
2023/07/17 04:40:55;;;;;;;6.47;3.63;;;20.90;99.90;;;;;;4400159;28;659085;-69
2023/07/17 04:43:42;;;;;;;4.67;3.47;;;20.90;99.90;;;;;;4407320;28;660292;-69
2023/07/17 04:46:31;;;;;;;4.50;3.60;;;21.00;99.90;;;;;;4406390;28;658838;-70
2023/07/17 04:49:18;;;;;;;4.20;3.60;;;21.20;99.90;;;;;;4384181;28;659351;-69
2023/07/17 04:52:06;;;;;;;5.73;3.60;;;21.30;99.90;;;;;;4385920;28;661586;-70
2023/07/17 04:54:53;;;;;;;6.77;3.43;;;21.50;99.90;;;;;;4409259;28;659277;-69
2023/07/17 04:57:40;;;;;;;5.80;3.90;;;21.60;99.90;;;;;;4391879;28;658821;-69
2023/07/17 05:00:27;;;;;;;5.33;3.73;;;21.60;99.90;;;;;;4412626;28;659594;-70
2023/07/17 05:03:16;;;;;;;7.67;3.30;;;21.80;99.90;;;;;;4410685;28;659291;-70
2023/07/17 05:06:03;;;;;;;6.93;3.50;;;22.00;99.90;;;;;;4384221;28;658736;-69
2023/07/17 05:08:51;;;;;;;6.17;3.67;;;22.10;99.90;;;;;;4389406;28;659704;-69
2023/07/17 05:11:39;;;;;;;5.00;3.63;;;22.30;99.90;;;;;;4410445;28;660023;-70
2023/07/17 05:14:26;;;;;;;7.00;4.20;;;22.40;99.90;;;;;;4388355;28;658991;-69
2023/07/17 05:17:13;;;;;;;4.40;3.20;;;22.60;99.90;;;;;;4411718;28;659541;-70
2023/07/17 05:20:04;;;;;;;4.77;3.50;;;22.60;99.90;;;;;;4390301;28;658643;-70
2023/07/17 05:22:51;;;;;;;5.73;3.17;;;22.70;99.90;;;;;;4380699;28;658648;-70
2023/07/17 05:25:38;;;;;;;5.63;3.87;;;22.80;99.90;;;;;;4408548;28;659078;-70
2023/07/17 05:28:27;;;;;;;5.10;4.00;;;22.70;99.90;;;;;;4383551;28;658842;-69
2023/07/17 05:31:15;;;;;;;8.13;3.63;;;22.50;99.90;;;;;;4408868;28;658907;-70
2023/07/17 05:34:03;;;;;;;7.50;4.73;;;22.10;99.90;;;;;;4381797;28;660262;-69
2023/07/17 05:36:51;;;;;;;17.43;7.20;;;21.80;99.90;;;;;;4903745;28;658367;-68
2023/07/17 05:39:38;;;;;;;13.60;5.87;;;21.50;99.90;;;;;;4985181;28;20751;-70
2023/07/17 05:42:26;;;;;;;11.07;6.03;;;21.20;99.90;;;;;;4984962;28;20207;-71
2023/07/17 05:45:13;;;;;;;11.63;4.60;;;20.70;99.90;;;;;;4987753;28;20207;-65
2023/07/17 05:48:00;;;;;;;13.83;4.73;;;20.20;99.90;;;;;;4985700;28;20678;-65
2023/07/17 05:50:47;;;;;;;8.17;4.63;;;19.60;99.90;;;;;;4982220;28;20326;-67
2023/07/17 05:53:36;;;;;;;8.47;5.17;;;19.20;99.90;;;;;;4984131;28;20229;-69
2023/07/17 05:56:23;;;;;;;6.63;5.13;;;19.10;99.90;;;;;;4986467;28;20215;-71
2023/07/17 05:59:10;;;;;;;9.70;5.70;;;19.10;99.90;;;;;;4982651;28;20369;-71
2023/07/17 06:01:57;;;;;;;5.77;4.70;;;19.10;99.90;;;;;;4987799;28;20237;-71
2023/07/17 06:04:45;;;;;;;7.80;4.30;;;19.00;99.90;;;;;;4986968;28;20229;-70
2023/07/17 06:07:32;;;;;;;5.87;4.70;;;18.80;99.90;;;;;;5001654;28;20246;-71
2023/07/17 06:10:21;;;;;;;10.77;4.57;;;18.70;99.90;;;;;;5045519;28;20356;-72
2023/07/17 06:13:09;;;;;;;7.97;4.37;;;18.50;99.90;;;;;;5048811;28;20235;-72
2023/07/17 06:15:56;;;;;;;7.53;4.63;;;18.50;99.90;;;;;;5042572;28;20618;-73
2023/07/17 06:18:43;;;;;;;6.07;4.07;;;18.50;99.90;;;;;;5031227;28;20257;-72
2023/07/17 06:21:30;;;;;;;10.93;4.27;;;18.50;99.90;;;;;;5032991;28;20196;-71
2023/07/17 06:24:17;;;;;;;6.60;4.00;;;18.50;99.90;;;;;;5046498;28;20210;-72
2023/07/17 06:27:07;;;;;;;7.63;4.33;;;18.50;99.90;;;;;;5051359;28;20210;-72
2023/07/17 06:29:55;;;;;;;7.73;4.20;;;18.50;99.90;;;;;;5037510;28;20218;-72
2023/07/17 06:32:42;;;;;;;8.40;4.97;;;18.70;99.90;;;;;;5047321;28;20205;-72
2023/07/17 06:35:29;;;;;;;7.63;4.40;;;18.80;99.90;;;;;;5046728;28;20215;-71
2023/07/17 06:38:16;;;;;;;7.73;4.60;;;18.90;99.90;;;;;;5039839;28;20707;-71
2023/07/17 06:41:04;;;;;;;7.10;5.03;;;19.10;99.90;;;;;;5045360;28;20200;-71
2023/07/17 06:43:53;;;;;;;6.97;4.53;;;19.20;99.90;;;;;;5043043;28;20236;-70
2023/07/17 06:46:42;;;;;;;6.03;4.17;;;19.30;99.90;;;;;;5045021;28;20234;-71
2023/07/17 06:49:29;;;;;;;5.30;3.87;;;19.40;99.90;;;;;;5043675;28;20439;-70
2023/07/17 06:52:16;;;;;;;5.07;3.60;;;19.50;99.90;;;;;;5046827;28;20595;-71
2023/07/17 06:55:04;;;;;;;5.97;3.80;;;19.50;99.90;;;;;;5045575;28;20293;-71
2023/07/17 06:57:51;;;;;;;4.73;3.87;;;19.60;99.90;;;;;;5034767;28;20425;-71
2023/07/17 07:00:40;;;;;;;7.03;4.20;;;19.80;99.90;;;;;;5043264;28;20211;-70
2023/07/17 07:03:28;;;;;;;6.17;3.90;;;19.90;99.90;;;;;;5044441;28;20204;-71
2023/07/17 07:06:15;;;;;;;4.70;3.17;;;19.90;99.90;;;;;;5046961;28;20279;-70
2023/07/17 07:09:03;;;;;;;4.47;3.10;;;20.00;99.90;;;;;;5043590;28;20205;-71
2023/07/17 07:11:50;;;;;;;3.80;3.17;;;20.00;99.90;;;;;;5042349;28;20205;-69
2023/07/17 07:14:37;;;;;;;5.13;3.40;;;20.20;99.90;;;;;;5039487;28;20212;-71
2023/07/17 07:17:26;;;;;;;4.77;3.20;;;20.20;99.90;;;;;;5043823;28;20254;-70
2023/07/17 07:20:13;;;;;;;5.83;3.37;;;20.30;99.90;;;;;;5039036;28;20212;-71
2023/07/17 07:23:00;;;;;;;5.60;3.67;;;20.40;99.90;;;;;;5039483;28;20209;-71
2023/07/17 07:25:48;;;;;;;6.73;3.53;;;20.40;99.90;;;;;;5042527;28;20224;-70
2023/07/17 07:28:35;;;;;;;8.77;3.90;;;20.40;99.90;;;;;;5040173;28;20305;-70
2023/07/17 07:31:22;;;;;;;5.67;3.87;;;20.40;99.90;;;;;;5034811;28;20576;-71
2023/07/17 07:34:11;;;;;;;4.77;3.83;;;20.50;99.90;;;;;;5042068;28;20593;-71
2023/07/17 07:36:58;;;;;;;5.97;3.90;;;20.50;99.90;;;;;;5040925;28;20712;-71
2023/07/17 07:39:45;;;;;;;7.23;3.53;;;20.50;99.90;;;;;;5037914;28;20247;-70
2023/07/17 07:42:32;;;;;;;6.53;3.93;;;20.60;99.90;;;;;;5035152;28;20566;-71
2023/07/17 07:45:21;;;;;;;6.30;3.47;;;20.60;99.90;;;;;;5038108;28;20554;-71
2023/07/17 07:48:08;;;;;;;4.73;3.50;;;20.70;99.90;;;;;;5039486;28;20263;-70
2023/07/17 07:50:56;;;;;;;5.07;3.57;;;20.70;99.90;;;;;;5039028;28;20209;-71
2023/07/17 07:53:44;;;;;;;5.90;3.60;;;20.80;99.90;;;;;;5043328;28;20213;-71
2023/07/17 07:56:31;;;;;;;4.77;3.70;;;20.80;99.90;;;;;;5041705;28;20220;-70
2023/07/17 07:59:18;;;;;;;6.53;3.97;;;20.90;99.90;;;;;;5033810;28;20763;-72
2023/07/17 08:02:06;;;;;;;4.67;4.13;;;21.00;99.90;;;;;;5037914;28;20473;-70
2023/07/17 08:04:53;;;;;;;4.83;3.63;;;21.10;99.90;;;;;;5043543;28;20244;-71
2023/07/17 08:07:41;;;;;;;8.60;4.00;;;21.20;99.90;;;;;;5043706;28;20213;-69
2023/07/17 08:10:29;;;;;;;4.53;3.57;;;21.30;99.90;;;;;;5041771;28;20266;-70
2023/07/17 08:13:16;;;;;;;5.67;3.50;;;21.30;99.90;;;;;;5044290;28;20205;-69
2023/07/17 08:16:03;;;;;;;4.10;3.33;;;21.40;99.90;;;;;;5039287;28;20248;-69
2023/07/17 08:18:51;;;;;;;4.83;3.30;;;21.50;99.90;;;;;;5039790;28;20360;-71
2023/07/17 08:21:38;;;;;;;4.03;3.17;;;21.50;99.90;;;;;;5043505;28;20654;-70
2023/07/17 08:24:27;;;;;;;5.50;3.17;;;21.70;99.90;;;;;;5038127;28;20731;-70
2023/07/17 08:27:14;;;;;;;4.03;3.43;;;21.70;99.90;;;;;;5040492;28;20661;-71
2023/07/17 08:30:01;;;;;;;5.27;3.43;;;21.70;99.90;;;;;;5044633;28;20193;-71
2023/07/17 08:32:48;;;;;;;5.53;3.50;;;21.70;99.90;;;;;;5035968;28;20292;-71
2023/07/17 08:35:35;;;;;;;5.33;3.80;;;21.60;99.90;;;;;;5041639;28;20201;-72
2023/07/17 08:38:23;;;;;;;6.20;4.00;;;21.70;99.90;;;;;;5044679;28;20758;-71
2023/07/17 08:41:13;;;;;;;11.30;3.57;;;21.80;99.90;;;;;;5043805;28;20212;-71
2023/07/17 08:44:00;;;;;;;4.43;3.60;;;22.00;99.90;;;;;;5041759;28;20237;-70
2023/07/17 08:46:47;;;;;;;6.67;4.60;;;22.10;99.90;;;;;;5046446;28;20410;-68
2023/07/17 08:49:35;;;;;;;4.40;3.63;;;22.20;99.90;;;;;;5031931;28;20233;-71
2023/07/17 08:52:22;;;;;;;8.00;3.70;;;22.30;99.90;;;;;;5042850;28;20212;-70
2023/07/17 08:55:09;;;;;;;7.53;4.07;;;22.40;99.90;;;;;;5040596;28;20205;-70
2023/07/17 08:57:58;;;;;;;7.03;4.00;;;22.60;99.90;;;;;;5039231;28;20198;-69
2023/07/17 09:00:46;;;;;;;5.77;3.77;;;22.70;99.90;;;;;;5042293;28;20690;-69
2023/07/17 09:03:34;;;;;;;6.47;3.30;;;22.90;99.90;;;;;;5043617;28;20216;-69
2023/07/17 09:06:23;;;;;;;7.00;3.40;;;23.00;99.90;;;;;;5034845;28;20197;-66
2023/07/17 09:09:11;;;;;;;6.37;3.43;;;23.10;99.90;;;;;;5043493;28;20932;-69
2023/07/17 09:12:08;;;;;;;5.37;3.37;;;23.00;99.90;;;;;;5042202;28;20294;-71
2023/07/17 09:14:57;;;;;;;6.23;3.20;;;23.20;99.90;;;;;;5043692;28;20513;-69
2023/07/17 09:17:44;;;;;;;4.83;3.20;;;23.00;99.90;;;;;;5044436;28;20202;-68
2023/07/17 09:20:31;;;;;;;4.67;2.90;;;23.10;99.90;;;;;;5038506;28;20205;-69
2023/07/17 09:23:19;;;;;;;4.38;2.97;;;23.10;99.90;;;;;;5037082;28;20242;-68
2023/07/17 09:26:06;;;;;;;6.10;2.97;;;23.40;99.90;;;;;;5039546;28;20676;-68
2023/07/17 09:28:54;;;;;;;5.23;2.97;;;23.40;99.90;;;;;;5038995;28;20446;-68
2023/07/17 09:31:43;;;;;;;6.15;3.22;;;23.40;99.90;;;;;;5041958;28;20233;-69
2023/07/17 09:34:31;;;;;;;5.63;3.30;;;23.40;99.90;;;;;;5040279;28;20212;-70
2023/07/17 09:37:18;;;;;;;5.30;3.20;;;23.30;99.90;;;;;;5043838;28;20205;-69
2023/07/17 09:40:09;;;;;;;4.57;2.73;;;23.30;99.90;;;;;;5045646;28;20310;-71
2023/07/17 09:42:56;;;;;;;6.67;3.20;;;23.10;99.90;;;;;;5039729;28;20212;-70
2023/07/17 09:45:43;;;;;;;5.00;3.13;;;23.10;99.90;;;;;;5041787;28;20193;-71
2023/07/17 09:48:32;;;;;;;5.22;3.00;;;23.20;99.90;;;;;;5041891;28;20194;-72
2023/07/17 09:51:20;;;;;;;3.73;2.90;;;23.30;99.90;;;;;;5044171;28;20585;-71
2023/07/17 09:54:07;;;;;;;6.27;2.80;;;23.60;99.90;;;;;;5046530;28;20315;-71
2023/07/17 09:56:54;;;;;;;3.55;2.40;;;23.80;99.90;;;;;;5039837;28;20422;-71
2023/07/17 09:59:42;;;;;;;6.63;2.60;;;24.00;99.90;;;;;;5042418;28;20512;-71
2023/07/17 10:02:31;;;;;;;9.52;2.60;;;24.10;99.90;;;;;;5045759;28;20699;-71
2023/07/17 10:05:19;;;;;;;6.65;2.45;;;24.20;99.90;;;;;;5044751;28;20209;-71
2023/07/17 10:08:07;;;;;;;6.97;2.53;;;24.20;99.90;;;;;;5032808;28;21396;-71
2023/07/17 10:10:54;;;;;;;3.88;2.55;;;23.90;99.90;;;;;;5038077;28;20551;-72
2023/07/17 10:13:42;;;;;;;6.38;3.00;;;23.80;99.90;;;;;;5038173;28;20244;-72
2023/07/17 10:16:29;;;;;;;3.53;2.33;;;23.60;99.90;;;;;;5042759;28;20205;-71
2023/07/17 10:19:17;;;;;;;7.13;2.67;;;23.40;99.90;;;;;;5042141;28;20264;-71
2023/07/17 10:22:05;;;;;;;9.57;2.80;;;23.20;99.90;;;;;;5041356;28;20343;-72
2023/07/17 10:24:53;;;;;;;6.70;3.13;;;23.10;99.90;;;;;;5034923;28;20210;-71
2023/07/17 10:27:40;;;;;;;6.90;3.10;;;22.90;99.90;;;;;;5039946;28;20209;-71
2023/07/17 10:30:31;;;;;;;5.65;3.15;;;22.90;99.90;;;;;;5041118;28;20197;-72
2023/07/17 10:33:19;;;;;;;4.90;2.70;;;22.90;99.90;;;;;;5040586;28;20201;-71
2023/07/17 10:36:07;;;;;;;5.63;3.20;;;22.70;99.90;;;;;;5040693;28;20588;-71
2023/07/17 10:38:55;;;;;;;7.07;3.13;;;22.40;99.90;;;;;;5041472;28;20229;-71
2023/07/17 10:41:43;;;;;;;5.93;2.77;;;22.20;99.90;;;;;;5042051;28;20625;-71
2023/07/17 10:44:30;;;;;;;6.10;3.10;;;22.00;99.90;;;;;;5033277;28;20207;-70
2023/07/17 10:47:17;;;;;;;4.83;2.80;;;21.90;99.90;;;;;;5038037;28;20734;-71
2023/07/17 10:50:05;;;;;;;5.37;2.70;;;21.80;99.90;;;;;;5039180;28;20730;-71
2023/07/17 10:52:52;;;;;;;4.70;3.30;;;21.60;99.90;;;;;;5038948;28;20205;-71
2023/07/17 10:55:40;;;;;;;4.60;3.17;;;21.50;99.90;;;;;;5042577;28;20750;-71
2023/07/17 10:58:28;;;;;;;4.80;3.30;;;21.40;99.90;;;;;;5039714;28;20198;-72
2023/07/17 11:01:15;;;;;;;8.60;3.13;;;21.10;99.90;;;;;;5044571;28;20205;-71
2023/07/17 11:04:03;;;;;;;12.07;3.23;;;20.70;99.90;;;;;;5040108;28;20373;-71
2023/07/17 11:06:50;;;;;;;4.37;2.80;;;20.60;99.90;;;;;;5039042;28;20217;-71
2023/07/17 11:09:38;;;;;;;4.63;2.97;;;20.30;99.90;;;;;;5042149;28;20198;-72
2023/07/17 11:12:27;;;;;;;8.30;3.17;;;20.30;99.90;;;;;;5044213;28;20196;-72
2023/07/17 11:15:15;;;;;;;5.57;3.37;;;20.20;99.90;;;;;;5040842;28;20205;-71
2023/07/17 11:18:03;;;;;;;7.13;3.30;;;20.00;99.90;;;;;;5031728;28;20201;-70
2023/07/17 11:20:50;;;;;;;5.17;3.23;;;19.80;99.90;;;;;;5035526;28;20229;-73
2023/07/17 11:23:43;;;;;;;8.50;3.63;;;19.80;99.90;;;;;;5037046;28;20843;-72
2023/07/17 11:26:31;;;;;;;7.33;4.03;;;19.80;99.90;;;;;;5043197;28;20201;-71
2023/07/17 11:29:20;;;;;;;8.43;4.10;;;19.80;99.90;;;;;;5042748;28;20197;-73
2023/07/17 11:32:08;;;;;;;7.77;4.17;;;19.60;99.90;;;;;;5042724;28;20212;-73
2023/07/17 11:34:55;;;;;;;7.70;4.87;;;19.50;99.90;;;;;;5030080;28;20228;-71
2023/07/17 11:37:42;;;;;;;10.20;4.63;;;19.60;99.90;;;;;;5041754;28;20197;-71
2023/07/17 11:40:29;;;;;;;14.70;4.97;;;19.60;99.90;;;;;;5040982;28;20599;-70
2023/07/17 11:43:23;;;;;;;9.03;4.50;;;19.50;99.90;;;;;;5046416;28;20204;-73
2023/07/17 11:46:11;;;;;;;13.73;5.47;;;19.50;99.90;;;;;;5031390;28;20370;-72
2023/07/17 11:48:58;;;;;;;9.60;5.13;;;19.50;99.90;;;;;;5044023;28;20775;-72
2023/07/17 11:51:46;;;;;;;11.17;5.10;;;19.40;99.90;;;;;;5044931;28;20205;-75
2023/07/17 11:54:42;;;;;;;13.57;5.90;;;19.50;99.90;;;;;;5037489;28;20208;-74
2023/07/17 11:57:29;;;;;;;18.30;5.60;;;19.50;99.90;;;;;;5045178;28;20208;-73
2023/07/17 12:00:17;;;;;;;9.07;4.63;;;19.30;99.90;;;;;;5046418;28;20217;-74
2023/07/17 12:03:06;;;;;;;4.37;3.20;;;19.10;99.90;;;;;;5039590;28;20216;-74
2023/07/17 12:05:53;;;;;;;6.30;3.60;;;19.00;99.90;;;;;;5048944;28;20197;-75
2023/07/17 12:08:41;;;;;;;7.13;4.07;;;19.10;99.90;;;;;;5042675;28;20908;-74
2023/07/17 12:11:28;;;;;;;9.83;4.60;;;19.00;99.90;;;;;;5048685;28;20204;-73
2023/07/17 12:14:16;;;;;;;8.10;4.27;;;19.10;99.90;;;;;;5047219;28;20208;-73
2023/07/17 12:17:03;;;;;;;6.70;4.30;;;19.00;99.90;;;;;;5046336;28;20723;-74
2023/07/17 12:19:54;;;;;;;9.83;5.17;;;18.90;99.90;;;;;;5042345;28;20695;-73
2023/07/17 12:22:41;;;;;;;12.03;5.50;;;18.70;99.90;;;;;;5042860;28;20686;-72
2023/07/17 12:25:29;;;;;;;10.13;6.60;;;18.80;99.90;;;;;;5047368;28;20197;-75
2023/07/17 12:28:16;;;;;;;12.40;7.20;;;18.80;99.90;;;;;;5046532;28;20206;-74
2023/07/17 12:31:03;;;;;;;12.83;8.47;;;18.80;99.90;;;;;;5045244;28;20383;-75
2023/07/17 12:33:51;;;;;;;15.60;9.90;;;18.70;99.90;;;;;;5046667;28;20314;-73
2023/07/17 12:36:39;;;;;;;21.63;12.80;;;18.70;99.90;;;;;;5047989;28;20571;-73
2023/07/17 12:39:26;;;;;;;16.23;12.33;;;18.50;99.90;;;;;;5046577;28;20221;-75
2023/07/17 12:42:14;;;;;;;20.57;13.20;;;18.50;99.90;;;;;;5047327;28;20266;-74
2023/07/17 12:45:02;;;;;;;19.47;10.87;;;18.50;99.90;;;;;;5045794;28;20207;-73
2023/07/17 12:47:49;;;;;;;17.37;11.93;;;18.50;99.90;;;;;;5043239;28;20210;-74
2023/07/17 12:50:36;;;;;;;14.63;10.83;;;18.50;99.90;;;;;;5047380;28;20591;-74
2023/07/17 12:53:25;;;;;;;14.93;10.43;;;18.40;99.90;;;;;;5045577;28;20215;-76
2023/07/17 12:56:12;;;;;;;14.43;9.23;;;18.40;99.90;;;;;;5044712;28;20615;-78
2023/07/17 12:58:59;;;;;;;14.60;9.83;;;18.50;99.90;;;;;;5045200;28;20205;-76
2023/07/17 13:01:47;;;;;;;14.67;10.53;;;18.50;99.90;;;;;;5044423;28;20576;-76
2023/07/17 13:04:34;;;;;;;15.30;10.57;;;18.50;99.90;;;;;;5046627;28;20257;-76
2023/07/17 13:07:21;;;;;;;18.60;11.17;;;18.60;99.90;;;;;;5045172;28;20194;-76
2023/07/17 13:10:11;;;;;;;22.87;9.93;;;18.70;99.90;;;;;;5047248;28;20660;-76
2023/07/17 13:12:58;;;;;;;15.63;9.80;;;18.70;99.90;;;;;;5044139;28;20201;-76
2023/07/17 13:15:45;;;;;;;16.47;10.20;;;18.70;99.90;;;;;;5043839;28;20568;-76
2023/07/17 13:18:33;;;;;;;16.27;11.10;;;18.70;99.90;;;;;;5045481;28;20204;-76
2023/07/17 13:21:20;;;;;;;18.10;11.20;;;18.80;99.90;;;;;;5041304;28;20221;-75
2023/07/17 13:24:07;;;;;;;16.03;11.70;;;18.70;99.90;;;;;;5047268;28;20851;-76
2023/07/17 13:26:56;;;;;;;15.40;11.60;;;18.80;99.90;;;;;;5047768;28;20218;-75
2023/07/17 13:29:43;;;;;;;20.07;12.80;;;18.90;99.90;;;;;;5047971;28;20193;-76
2023/07/17 13:33:01;;;;;;;22.23;13.53;;;19.00;99.90;;;;;;5048927;28;20205;-75
2023/07/17 13:35:48;;;;;;;20.00;13.27;;;19.20;99.90;;;;;;5045844;28;20200;-76
2023/07/17 13:38:35;;;;;;;15.90;11.27;;;19.30;99.90;;;;;;5048559;28;20311;-75
2023/07/17 13:41:41;;;;;;;15.57;10.50;;;19.50;99.90;;;;;;5048003;28;20217;-74
2023/07/17 13:44:30;;;;;;;12.43;9.70;;;19.50;99.90;;;;;;5047225;28;20195;-73
2023/07/17 13:47:17;;;;;;;14.90;10.30;;;19.60;99.90;;;;;;5045996;28;20205;-74
2023/07/17 13:50:05;;;;;;;13.20;8.33;;;19.70;99.90;;;;;;5047149;28;20949;-73
2023/07/17 13:52:52;;;;;;;11.40;9.13;;;19.70;99.90;;;;;;5044782;28;20435;-72
2023/07/17 13:55:39;;;;;;;13.30;8.90;;;19.80;99.90;;;;;;5043368;28;20582;-72
2023/07/17 13:58:27;;;;;;;17.43;9.67;;;19.80;99.90;;;;;;5032612;28;20208;-70
2023/07/17 14:01:15;;;;;;;13.53;9.80;;;19.80;99.90;;;;;;5036732;28;20267;-73
2023/07/17 14:04:03;;;;;;;11.63;9.67;;;19.90;99.90;;;;;;5043461;28;20201;-73
2023/07/17 14:06:50;;;;;;;14.57;10.57;;;19.90;99.90;;;;;;5043543;28;20197;-73
2023/07/17 14:09:39;;;;;;;16.70;10.60;;;19.90;99.90;;;;;;5043856;28;20228;-74
2023/07/17 14:12:26;;;;;;;14.53;10.03;;;19.90;99.90;;;;;;5044951;28;20194;-73
2023/07/17 14:15:13;;;;;;;13.97;10.17;;;20.00;99.90;;;;;;5042484;28;20201;-74
2023/07/17 14:18:02;;;;;;;12.93;9.53;;;20.00;99.90;;;;;;5042121;28;20743;-73
2023/07/17 14:20:49;;;;;;;11.07;9.43;;;20.00;99.90;;;;;;5044202;28;20229;-74
2023/07/17 14:23:36;;;;;;;12.07;8.73;;;20.00;99.90;;;;;;5044735;28;20656;-73
2023/07/17 14:26:23;;;;;;;13.43;9.53;;;19.80;99.90;;;;;;5046436;28;20664;-75